Time;durP1;ratioP1;P1;durP2;ratioP2;P2;SDS_P1;SDS_P2;PMS_P1;PMS_P2;Temp;Humidity;BMP_temperature;BMP_pressure;BME280_temperature;BME280_humidity;BME280_pressure;Samples;Min_cycle;Max_cycle;Signal;HPM_P1;HPM_P2
2022/04/15 00:01:40;;;;;;;21.17;5.43;;;;;;;;;;4976216;28;20117;-79
2022/04/15 00:04:07;;;;;;;14.23;4.97;;;;;;;;;;4976239;28;20473;-79
2022/04/15 00:06:33;;;;;;;13.15;4.85;;;;;;;;;;4962735;28;20022;-80
2022/04/15 00:08:59;;;;;;;10.90;4.65;;;;;;;;;;4957651;28;20050;-80
2022/04/15 00:11:25;;;;;;;13.98;5.35;;;;;;;;;;4971032;28;20031;-79
2022/04/15 00:13:51;;;;;;;15.77;4.57;;;;;;;;;;4973871;28;20033;-80
2022/04/15 00:16:17;;;;;;;17.83;3.97;;;;;;;;;;4964901;28;20371;-80
2022/04/15 00:18:44;;;;;;;13.60;4.28;;;;;;;;;;4975245;28;20038;-80
2022/04/15 00:21:10;;;;;;;16.60;4.60;;;;;;;;;;4958431;28;20026;-79
2022/04/15 00:23:36;;;;;;;14.68;4.85;;;;;;;;;;4971525;28;20906;-80
2022/04/15 00:26:03;;;;;;;13.82;5.00;;;;;;;;;;4956836;28;20260;-80
2022/04/15 00:28:29;;;;;;;8.23;4.57;;;;;;;;;;4957336;28;20044;-79
2022/04/15 00:30:55;;;;;;;10.48;4.40;;;;;;;;;;4975163;28;20030;-79
2022/04/15 00:33:22;;;;;;;13.52;4.88;;;;;;;;;;4972996;28;20043;-79
2022/04/15 00:35:48;;;;;;;10.98;4.80;;;;;;;;;;4961447;28;20030;-79
2022/04/15 00:38:14;;;;;;;14.80;4.40;;;;;;;;;;4963101;28;20089;-79
2022/04/15 00:40:40;;;;;;;13.88;4.78;;;;;;;;;;4962876;28;20037;-80
2022/04/15 00:43:06;;;;;;;7.82;4.00;;;;;;;;;;4956494;28;20042;-79
2022/04/15 00:45:32;;;;;;;9.25;3.90;;;;;;;;;;4960368;28;20146;-80
2022/04/15 00:47:59;;;;;;;11.57;3.67;;;;;;;;;;4972342;28;20410;-80
2022/04/15 00:50:29;;;;;;;10.45;4.63;;;;;;;;;;4959771;28;20042;-80
2022/04/15 00:52:58;;;;;;;10.18;3.67;;;;;;;;;;4972597;28;20041;-79
2022/04/15 00:55:24;;;;;;;5.30;3.47;;;;;;;;;;4973236;28;20018;-79
2022/04/15 00:57:51;;;;;;;7.88;3.08;;;;;;;;;;4975499;28;20027;-80
2022/04/15 01:00:18;;;;;;;13.80;3.25;;;;;;;;;;4980146;28;20041;-80
2022/04/15 01:02:44;;;;;;;7.35;3.40;;;;;;;;;;4970962;28;20160;-80
2022/04/15 01:05:11;;;;;;;8.07;3.65;;;;;;;;;;4965566;28;20543;-80
2022/04/15 01:07:38;;;;;;;6.57;3.22;;;;;;;;;;4964899;28;20100;-80
2022/04/15 01:10:06;;;;;;;4.32;3.35;;;;;;;;;;4979180;28;20026;-80
2022/04/15 01:12:34;;;;;;;9.45;3.40;;;;;;;;;;4967027;28;20477;-80
2022/04/15 01:15:01;;;;;;;5.88;3.45;;;;;;;;;;4965772;28;20042;-79
2022/04/15 01:17:30;;;;;;;7.55;3.60;;;;;;;;;;4979236;28;20034;-79
2022/04/15 01:19:56;;;;;;;9.68;3.30;;;;;;;;;;4978181;28;20034;-79
2022/04/15 01:22:28;;;;;;;9.82;3.13;;;;;;;;;;4965469;28;20022;-79
2022/04/15 01:24:54;;;;;;;6.93;3.10;;;;;;;;;;4963543;28;20042;-79
2022/04/15 01:27:27;;;;;;;11.80;3.78;;;;;;;;;;4966241;28;20019;-79
2022/04/15 01:29:53;;;;;;;8.77;3.05;;;;;;;;;;4967476;28;20096;-80
2022/04/15 01:32:19;;;;;;;8.32;3.15;;;;;;;;;;4960009;28;20048;-79
2022/04/15 01:34:52;;;;;;;12.52;3.10;;;;;;;;;;4965801;28;20471;-79
2022/04/15 01:37:20;;;;;;;10.13;3.20;;;;;;;;;;4979561;28;20099;-80
2022/04/15 01:39:47;;;;;;;9.32;3.05;;;;;;;;;;4965246;28;20022;-79
2022/04/15 01:42:14;;;;;;;5.05;2.80;;;;;;;;;;4962826;28;20042;-79
2022/04/15 01:44:41;;;;;;;8.57;3.45;;;;;;;;;;4978155;28;20027;-80
2022/04/15 01:47:07;;;;;;;6.35;3.20;;;;;;;;;;4978954;28;20034;-80
2022/04/15 01:49:33;;;;;;;8.40;3.72;;;;;;;;;;4983798;28;20509;-80
2022/04/15 01:52:00;;;;;;;7.82;3.20;;;;;;;;;;4976856;28;20065;-80
2022/04/15 01:54:29;;;;;;;8.30;3.90;;;;;;;;;;4984431;28;20105;-80
2022/04/15 01:56:55;;;;;;;21.50;5.90;;;;;;;;;;4966490;28;20041;-80
2022/04/15 01:59:21;;;;;;;16.58;4.47;;;;;;;;;;4979509;28;20415;-80
2022/04/15 02:01:47;;;;;;;8.45;4.22;;;;;;;;;;4961699;28;20520;-80
2022/04/15 02:04:13;;;;;;;16.98;3.95;;;;;;;;;;4980376;28;20046;-80
2022/04/15 02:06:39;;;;;;;11.80;4.22;;;;;;;;;;4978655;28;20042;-80
2022/04/15 02:09:05;;;;;;;14.68;5.80;;;;;;;;;;4975360;28;20031;-80
2022/04/15 02:11:38;;;;;;;19.77;4.43;;;;;;;;;;4983622;28;20072;-80
2022/04/15 02:14:04;;;;;;;12.35;4.90;;;;;;;;;;4977777;28;20039;-80
2022/04/15 02:16:30;;;;;;;15.27;6.85;;;;;;;;;;4982957;28;20085;-80
2022/04/15 02:18:56;;;;;;;18.25;5.60;;;;;;;;;;4976959;28;20490;-79
2022/04/15 02:21:22;;;;;;;13.70;5.15;;;;;;;;;;4966312;28;20030;-80
2022/04/15 02:23:48;;;;;;;9.77;4.22;;;;;;;;;;4969498;28;20089;-80
2022/04/15 02:26:14;;;;;;;13.60;4.82;;;;;;;;;;4981056;28;20462;-80
2022/04/15 02:28:40;;;;;;;13.93;4.97;;;;;;;;;;4965567;28;20532;-79
2022/04/15 02:31:06;;;;;;;16.33;5.18;;;;;;;;;;4966755;28;20481;-80
2022/04/15 02:33:32;;;;;;;20.83;6.22;;;;;;;;;;4975884;28;20033;-80
2022/04/15 02:35:58;;;;;;;14.02;5.70;;;;;;;;;;4980655;28;20084;-80
2022/04/15 02:38:24;;;;;;;14.90;7.95;;;;;;;;;;4959109;28;20108;-80
2022/04/15 02:40:51;;;;;;;18.05;7.72;;;;;;;;;;4965283;28;20089;-80
2022/04/15 02:43:18;;;;;;;19.70;8.02;;;;;;;;;;4962393;28;20479;-79
2022/04/15 02:45:44;;;;;;;22.75;8.65;;;;;;;;;;4983292;28;20027;-80
2022/04/15 02:48:10;;;;;;;22.95;8.13;;;;;;;;;;4973598;28;20624;-79
2022/04/15 02:50:37;;;;;;;16.38;8.40;;;;;;;;;;4967167;28;20045;-79
2022/04/15 02:53:05;;;;;;;16.38;8.32;;;;;;;;;;4964856;28;20038;-79
2022/04/15 02:55:31;;;;;;;17.48;7.88;;;;;;;;;;4974344;28;20382;-80
2022/04/15 02:57:57;;;;;;;21.70;7.88;;;;;;;;;;4964572;28;20124;-79
2022/04/15 03:00:23;;;;;;;14.10;8.25;;;;;;;;;;4963186;28;20026;-80
2022/04/15 03:02:49;;;;;;;19.85;7.85;;;;;;;;;;4977907;28;20540;-80
2022/04/15 03:05:15;;;;;;;15.18;7.28;;;;;;;;;;4968535;28;20541;-80
2022/04/15 03:07:41;;;;;;;11.70;6.90;;;;;;;;;;4977149;28;20409;-80
2022/04/15 03:10:08;;;;;;;10.10;5.97;;;;;;;;;;4964980;28;20046;-80
2022/04/15 03:12:38;;;;;;;10.90;5.47;;;;;;;;;;4963437;28;20050;-79
2022/04/15 03:15:05;;;;;;;7.00;4.90;;;;;;;;;;4975192;28;20135;-79
2022/04/15 03:17:31;;;;;;;7.22;4.32;;;;;;;;;;4958456;28;20105;-79
2022/04/15 03:19:58;;;;;;;7.90;4.72;;;;;;;;;;4975655;28;20096;-80
2022/04/15 03:22:24;;;;;;;6.32;4.55;;;;;;;;;;4973497;28;20126;-80
2022/04/15 03:24:53;;;;;;;9.18;4.65;;;;;;;;;;4958628;28;20047;-80
2022/04/15 03:27:19;;;;;;;11.43;4.63;;;;;;;;;;4981986;28;20023;-79
2022/04/15 03:29:45;;;;;;;7.28;4.65;;;;;;;;;;4960737;28;20045;-79
2022/04/15 03:32:11;;;;;;;9.38;5.50;;;;;;;;;;4980792;28;20050;-79
2022/04/15 03:34:37;;;;;;;7.60;4.63;;;;;;;;;;4968900;28;20100;-80
2022/04/15 03:37:04;;;;;;;7.80;4.05;;;;;;;;;;4959777;28;20030;-79
2022/04/15 03:39:30;;;;;;;10.00;5.80;;;;;;;;;;4974681;28;20085;-79
2022/04/15 03:41:56;;;;;;;9.52;5.05;;;;;;;;;;4978237;28;20034;-79
2022/04/15 03:44:22;;;;;;;10.95;5.07;;;;;;;;;;4978483;28;20030;-79
2022/04/15 03:46:48;;;;;;;7.25;4.25;;;;;;;;;;4965037;28;20522;-80
2022/04/15 03:49:14;;;;;;;9.65;5.28;;;;;;;;;;4960560;28;20104;-79
2022/04/15 03:51:40;;;;;;;5.68;3.67;;;;;;;;;;4970676;28;20413;-79
2022/04/15 03:54:06;;;;;;;8.20;3.60;;;;;;;;;;4958387;28;20442;-80
2022/04/15 03:56:33;;;;;;;6.55;4.20;;;;;;;;;;4963826;28;20034;-79
2022/04/15 03:58:59;;;;;;;6.85;4.40;;;;;;;;;;4962537;28;20069;-80
2022/04/15 04:01:25;;;;;;;7.13;3.97;;;;;;;;;;4962159;28;20483;-80
2022/04/15 04:03:52;;;;;;;9.00;3.97;;;;;;;;;;4966617;28;20740;-79
2022/04/15 04:06:18;;;;;;;5.65;3.70;;;;;;;;;;4973623;28;20089;-79
2022/04/15 04:08:49;;;;;;;5.65;3.50;;;;;;;;;;4958073;28;20124;-79
2022/04/15 04:11:16;;;;;;;5.38;3.42;;;;;;;;;;4963523;28;20556;-80
2022/04/15 04:13:42;;;;;;;5.93;3.33;;;;;;;;;;4976487;28;20031;-79
2022/04/15 04:16:08;;;;;;;8.18;3.75;;;;;;;;;;4963420;28;20041;-79
2022/04/15 04:18:34;;;;;;;6.15;3.08;;;;;;;;;;4977562;28;20084;-79
2022/04/15 04:21:00;;;;;;;5.15;3.40;;;;;;;;;;4974457;28;20023;-79
2022/04/15 04:23:26;;;;;;;4.18;3.17;;;;;;;;;;4952414;28;20494;-79
2022/04/15 04:25:52;;;;;;;4.10;2.95;;;;;;;;;;4975246;28;20023;-79
2022/04/15 04:28:18;;;;;;;4.25;3.38;;;;;;;;;;4963398;28;20513;-79
2022/04/15 04:30:44;;;;;;;5.05;2.88;;;;;;;;;;4962694;28;20524;-79
2022/04/15 04:33:10;;;;;;;6.65;3.42;;;;;;;;;;4979907;28;20034;-80
2022/04/15 04:35:39;;;;;;;5.18;3.28;;;;;;;;;;4980941;28;20086;-79
2022/04/15 04:38:07;;;;;;;5.18;3.22;;;;;;;;;;4975198;28;20018;-79
2022/04/15 04:40:34;;;;;;;3.08;2.58;;;;;;;;;;4964703;28;20026;-80
2022/04/15 04:43:00;;;;;;;4.65;2.55;;;;;;;;;;4963770;28;20550;-79
2022/04/15 04:45:27;;;;;;;5.35;2.88;;;;;;;;;;4978640;28;20034;-79
2022/04/15 04:47:53;;;;;;;5.82;2.90;;;;;;;;;;4964447;28;20442;-80
2022/04/15 04:50:20;;;;;;;3.67;2.97;;;;;;;;;;4964758;28;20142;-79
2022/04/15 04:52:47;;;;;;;6.70;3.30;;;;;;;;;;4978099;28;20034;-79
2022/04/15 04:55:13;;;;;;;6.15;3.15;;;;;;;;;;4978269;28;20058;-80
2022/04/15 04:57:39;;;;;;;6.82;3.72;;;;;;;;;;4965891;28;20488;-80
2022/04/15 05:00:06;;;;;;;5.72;3.33;;;;;;;;;;4966083;28;20029;-79
2022/04/15 05:02:32;;;;;;;5.90;3.70;;;;;;;;;;4978054;28;20034;-79
2022/04/15 05:04:58;;;;;;;6.05;3.40;;;;;;;;;;4979690;28;20085;-79
2022/04/15 05:07:24;;;;;;;4.47;3.20;;;;;;;;;;4966699;28;20795;-79
2022/04/15 05:09:51;;;;;;;9.38;4.20;;;;;;;;;;4958293;28;20047;-80
2022/04/15 05:12:17;;;;;;;14.27;3.78;;;;;;;;;;4975554;28;20520;-79
2022/04/15 05:14:43;;;;;;;12.30;4.20;;;;;;;;;;4966851;28;20030;-79
2022/04/15 05:17:10;;;;;;;5.82;3.70;;;;;;;;;;4977922;28;20162;-79
2022/04/15 05:19:36;;;;;;;6.65;4.22;;;;;;;;;;4982294;28;20382;-79
2022/04/15 05:22:02;;;;;;;6.90;4.15;;;;;;;;;;4966643;28;20019;-79
2022/04/15 05:24:28;;;;;;;8.10;4.32;;;;;;;;;;4961164;28;20046;-79
2022/04/15 05:26:54;;;;;;;10.82;4.47;;;;;;;;;;4981772;28;20125;-79
2022/04/15 05:29:21;;;;;;;12.55;4.43;;;;;;;;;;4960425;28;20387;-79
2022/04/15 05:31:47;;;;;;;7.75;4.80;;;;;;;;;;4981309;28;20876;-79
2022/04/15 05:34:13;;;;;;;8.02;4.90;;;;;;;;;;4967866;28;20042;-79
2022/04/15 05:36:39;;;;;;;13.60;4.63;;;;;;;;;;4963407;28;20026;-80
2022/04/15 05:39:05;;;;;;;9.73;4.90;;;;;;;;;;4965449;28;20022;-79
2022/04/15 05:41:31;;;;;;;13.95;5.05;;;;;;;;;;4980108;28;20713;-80
2022/04/15 05:43:58;;;;;;;10.57;4.85;;;;;;;;;;4975665;28;20045;-80
2022/04/15 05:46:27;;;;;;;8.73;5.10;;;;;;;;;;4976618;28;20026;-80
2022/04/15 05:48:53;;;;;;;11.25;5.50;;;;;;;;;;4965634;28;20042;-79
2022/04/15 05:51:19;;;;;;;12.23;6.03;;;;;;;;;;4980381;28;20038;-79
2022/04/15 05:53:46;;;;;;;24.23;6.28;;;;;;;;;;4961064;28;20061;-80
2022/04/15 05:56:12;;;;;;;9.27;5.25;;;;;;;;;;4978933;28;20026;-79
2022/04/15 05:58:40;;;;;;;18.35;9.93;;;;;;;;;;4960307;28;20800;-80
2022/04/15 06:01:09;;;;;;;10.80;6.20;;;;;;;;;;4961336;28;20430;-80
2022/04/15 06:03:35;;;;;;;11.85;5.90;;;;;;;;;;4981886;28;20133;-80
2022/04/15 06:06:02;;;;;;;19.20;6.75;;;;;;;;;;4977515;28;20038;-79
2022/04/15 06:08:28;;;;;;;11.73;5.07;;;;;;;;;;4961819;28;20497;-79
2022/04/15 06:10:54;;;;;;;10.60;5.80;;;;;;;;;;4964486;28;20045;-80
2022/04/15 06:13:22;;;;;;;12.25;6.22;;;;;;;;;;4974163;28;20438;-79
2022/04/15 06:15:53;;;;;;;14.82;6.30;;;;;;;;;;4977046;28;20471;-79
2022/04/15 06:18:22;;;;;;;15.60;6.03;;;;;;;;;;4961431;28;20112;-80
2022/04/15 06:20:48;;;;;;;14.93;5.93;;;;;;;;;;4965338;28;20085;-79
2022/04/15 06:23:15;;;;;;;10.60;6.63;;;;;;;;;;4978748;28;20046;-80
2022/04/15 06:25:45;;;;;;;17.13;8.07;;;;;;;;;;4962526;28;20026;-80
2022/04/15 06:28:11;;;;;;;13.82;7.70;;;;;;;;;;4980368;28;20034;-80
2022/04/15 06:30:37;;;;;;;17.20;8.95;;;;;;;;;;4960087;28;20049;-79
2022/04/15 06:33:05;;;;;;;17.83;7.55;;;;;;;;;;4960201;28;20632;-80
2022/04/15 06:35:32;;;;;;;15.98;8.50;;;;;;;;;;4979299;28;20026;-80
2022/04/15 06:37:58;;;;;;;21.75;9.55;;;;;;;;;;4971483;28;20546;-79
2022/04/15 06:40:24;;;;;;;18.42;8.70;;;;;;;;;;4960447;28;20177;-80
2022/04/15 06:42:50;;;;;;;19.70;9.30;;;;;;;;;;4976291;28;20227;-79
2022/04/15 06:45:16;;;;;;;21.42;10.38;;;;;;;;;;4973903;28;20524;-80
2022/04/15 06:47:42;;;;;;;14.57;9.02;;;;;;;;;;4963744;28;20557;-80
2022/04/15 06:50:11;;;;;;;19.13;9.32;;;;;;;;;;4967585;28;20437;-80
2022/04/15 06:52:37;;;;;;;20.73;9.05;;;;;;;;;;4975121;28;20034;-80
2022/04/15 06:55:04;;;;;;;17.65;8.13;;;;;;;;;;4977195;28;20072;-79
2022/04/15 06:57:31;;;;;;;23.95;9.88;;;;;;;;;;4961227;28;20057;-79
2022/04/15 06:59:57;;;;;;;20.42;8.23;;;;;;;;;;4977098;28;20026;-79
2022/04/15 07:02:23;;;;;;;19.88;7.63;;;;;;;;;;4965200;28;20076;-79
2022/04/15 07:05:01;;;;;;;17.27;7.90;;;;;;;;;;4975890;28;20516;-79
2022/04/15 07:07:27;;;;;;;17.98;8.43;;;;;;;;;;4982886;28;20842;-79
2022/04/15 07:09:54;;;;;;;23.27;8.82;;;;;;;;;;4979772;28;20085;-79
2022/04/15 07:12:20;;;;;;;20.10;8.45;;;;;;;;;;4984740;28;20088;-80
2022/04/15 07:14:46;;;;;;;15.98;8.25;;;;;;;;;;4980771;28;20447;-79
2022/04/15 07:17:11;;;;;;;15.68;7.15;;;;;;;;;;4967634;28;20034;-79
2022/04/15 07:19:38;;;;;;;19.35;7.38;;;;;;;;;;4981070;28;20565;-79
2022/04/15 07:22:05;;;;;;;17.08;6.70;;;;;;;;;;4966745;28;20041;-79
2022/04/15 07:24:32;;;;;;;11.43;6.50;;;;;;;;;;4978918;28;20398;-80
2022/04/15 07:26:58;;;;;;;13.50;6.55;;;;;;;;;;4982505;28;20076;-79
2022/04/15 07:29:26;;;;;;;24.48;7.32;;;;;;;;;;4981065;28;20054;-80
2022/04/15 07:31:52;;;;;;;15.68;6.82;;;;;;;;;;4979510;28;20027;-80
2022/04/15 07:34:18;;;;;;;11.68;7.00;;;;;;;;;;4978997;28;20065;-79
2022/04/15 07:36:48;;;;;;;17.60;6.78;;;;;;;;;;4967801;28;20078;-79
2022/04/15 07:39:14;;;;;;;16.25;6.32;;;;;;;;;;4981386;28;20293;-79
2022/04/15 07:41:41;;;;;;;13.25;5.28;;;;;;;;;;4964945;28;20766;-80
2022/04/15 07:44:08;;;;;;;22.25;6.38;;;;;;;;;;4978549;28;20034;-80
2022/04/15 07:46:34;;;;;;;13.60;6.15;;;;;;;;;;4962612;28;20494;-79
2022/04/15 07:49:01;;;;;;;17.63;6.10;;;;;;;;;;4963537;28;20034;-80
2022/04/15 07:51:27;;;;;;;22.25;6.53;;;;;;;;;;4983849;28;20394;-80
2022/04/15 07:53:53;;;;;;;12.65;6.28;;;;;;;;;;4974397;28;20590;-79
2022/04/15 07:56:21;;;;;;;19.20;6.38;;;;;;;;;;4978253;28;20034;-79
2022/04/15 07:58:48;;;;;;;20.33;6.43;;;;;;;;;;4961387;28;21092;-80
2022/04/15 08:01:14;;;;;;;18.80;5.43;;;;;;;;;;4975187;28;20194;-79
2022/04/15 08:03:40;;;;;;;12.52;6.07;;;;;;;;;;4976021;28;20035;-80
2022/04/15 08:06:06;;;;;;;12.00;6.00;;;;;;;;;;4973703;28;20052;-80
2022/04/15 08:08:32;;;;;;;11.60;4.88;;;;;;;;;;4958622;28;20042;-80
2022/04/15 08:10:58;;;;;;;15.35;4.63;;;;;;;;;;4962710;28;20034;-79
2022/04/15 08:13:24;;;;;;;10.73;4.15;;;;;;;;;;4969092;28;20027;-80
2022/04/15 08:15:54;;;;;;;9.80;4.55;;;;;;;;;;4970340;28;20703;-80
2022/04/15 08:18:21;;;;;;;9.15;4.30;;;;;;;;;;4966357;28;20034;-80
2022/04/15 08:20:47;;;;;;;9.85;4.53;;;;;;;;;;4978264;28;20087;-80
2022/04/15 08:23:13;;;;;;;10.27;4.00;;;;;;;;;;4961425;28;20088;-79
2022/04/15 08:25:39;;;;;;;9.48;4.10;;;;;;;;;;4974602;28;20037;-80
2022/04/15 08:28:06;;;;;;;7.13;4.05;;;;;;;;;;4963379;28;20513;-80
2022/04/15 08:30:35;;;;;;;13.05;4.85;;;;;;;;;;4961058;28;20035;-80
2022/04/15 08:33:02;;;;;;;8.80;4.78;;;;;;;;;;4980923;28;20026;-80
2022/04/15 08:35:29;;;;;;;14.27;4.43;;;;;;;;;;4958188;28;20121;-79
2022/04/15 08:37:55;;;;;;;14.70;4.82;;;;;;;;;;4958091;28;20022;-79
2022/04/15 08:40:21;;;;;;;10.40;3.97;;;;;;;;;;4960250;28;20022;-80
2022/04/15 08:42:47;;;;;;;13.48;4.43;;;;;;;;;;4961109;28;20853;-80
2022/04/15 08:45:13;;;;;;;12.10;4.60;;;;;;;;;;4959802;28;20517;-80
2022/04/15 08:47:42;;;;;;;8.00;3.95;;;;;;;;;;4978790;28;20546;-80
2022/04/15 08:50:14;;;;;;;13.95;4.40;;;;;;;;;;4972823;28;20069;-80
2022/04/15 08:52:40;;;;;;;6.32;3.90;;;;;;;;;;4971347;28;20034;-80
2022/04/15 08:55:07;;;;;;;8.93;4.70;;;;;;;;;;4958889;28;20159;-79
2022/04/15 08:57:33;;;;;;;12.40;4.80;;;;;;;;;;4981111;28;20027;-79
2022/04/15 09:00:00;;;;;;;14.55;5.03;;;;;;;;;;4962000;28;20026;-79
2022/04/15 09:02:33;;;;;;;11.00;4.40;;;;;;;;;;4959165;28;20719;-79
2022/04/15 09:05:06;;;;;;;15.57;5.10;;;;;;;;;;4970503;28;20046;-80
2022/04/15 09:07:33;;;;;;;11.02;4.82;;;;;;;;;;4956867;28;20438;-79
2022/04/15 09:10:01;;;;;;;5.80;4.03;;;;;;;;;;4971528;28;20117;-80
2022/04/15 09:12:35;;;;;;;15.95;5.53;;;;;;;;;;4960501;28;20034;-79
2022/04/15 09:15:09;;;;;;;16.73;5.80;;;;;;;;;;4963077;28;20034;-79
2022/04/15 09:17:36;;;;;;;12.35;4.82;;;;;;;;;;4962154;28;20026;-79
2022/04/15 09:20:03;;;;;;;12.70;6.60;;;;;;;;;;4962473;28;20023;-79
2022/04/15 09:22:29;;;;;;;8.40;5.30;;;;;;;;;;4963696;28;20107;-79
2022/04/15 09:24:55;;;;;;;8.93;4.53;;;;;;;;;;4968077;28;20069;-79
2022/04/15 09:27:23;;;;;;;13.93;5.20;;;;;;;;;;4978208;28;20030;-79
2022/04/15 09:29:51;;;;;;;8.18;5.22;;;;;;;;;;4964961;28;20031;-79
2022/04/15 09:32:18;;;;;;;8.65;4.78;;;;;;;;;;4983060;28;20041;-79
2022/04/15 09:34:53;;;;;;;12.13;5.13;;;;;;;;;;4979993;28;20062;-79
2022/04/15 09:37:20;;;;;;;9.18;5.03;;;;;;;;;;4979161;28;20178;-80
2022/04/15 09:40:18;;;;;;;12.80;5.50;;;;;;;;;;4961119;28;20498;-79
2022/04/15 09:42:48;;;;;;;9.13;4.38;;;;;;;;;;4968253;28;20525;-81
2022/04/15 09:45:18;;;;;;;11.85;4.47;;;;;;;;;;4981675;28;20041;-79
2022/04/15 09:47:50;;;;;;;15.52;5.85;;;;;;;;;;4980202;28;20033;-80
2022/04/15 09:50:22;;;;;;;9.38;5.32;;;;;;;;;;4960659;28;20042;-80
2022/04/15 09:52:48;;;;;;;12.43;5.47;;;;;;;;;;4971419;28;20030;-79
2022/04/15 09:55:16;;;;;;;12.73;4.93;;;;;;;;;;4977504;28;20394;-79
2022/04/15 09:57:43;;;;;;;15.25;4.88;;;;;;;;;;4964821;28;20037;-79
2022/04/15 10:00:11;;;;;;;7.75;4.35;;;;;;;;;;4963838;28;20045;-80
2022/04/15 10:02:39;;;;;;;10.75;4.63;;;;;;;;;;4978458;28;20027;-80
2022/04/15 10:05:12;;;;;;;15.15;5.13;;;;;;;;;;4974139;28;20043;-79
2022/04/15 10:07:45;;;;;;;12.38;4.45;;;;;;;;;;4981669;28;20035;-79
2022/04/15 10:10:11;;;;;;;9.50;4.65;;;;;;;;;;4964162;28;20037;-80
2022/04/15 10:12:40;;;;;;;7.78;4.70;;;;;;;;;;4984319;28;20046;-79
2022/04/15 10:15:09;;;;;;;11.10;5.43;;;;;;;;;;4959931;28;20359;-80
2022/04/15 10:17:35;;;;;;;11.48;5.05;;;;;;;;;;4989451;28;20572;-80
2022/04/15 10:20:02;;;;;;;11.35;4.93;;;;;;;;;;4961208;28;20701;-80
2022/04/15 10:22:28;;;;;;;7.55;4.32;;;;;;;;;;4959549;28;20038;-80
2022/04/15 10:24:55;;;;;;;6.75;3.90;;;;;;;;;;4979418;28;20073;-79
2022/04/15 10:27:26;;;;;;;8.68;4.35;;;;;;;;;;4983032;28;21894;-80
2022/04/15 10:30:13;;;;;;;8.98;4.20;;;;;;;;;;4979773;28;20027;-80
2022/04/15 10:32:47;;;;;;;9.18;4.88;;;;;;;;;;4974697;28;20043;-80
2022/04/15 10:35:20;;;;;;;13.65;4.28;;;;;;;;;;4963641;28;20791;-80
2022/04/15 10:37:46;;;;;;;10.60;4.53;;;;;;;;;;4963939;28;20030;-80
2022/04/15 10:40:22;;;;;;;10.50;5.50;;;;;;;;;;4961299;28;20142;-80
2022/04/15 10:42:48;;;;;;;;;;;;;;;;;;4965222;28;20046;-79
2022/04/15 10:45:38;;;;;;;7.65;4.10;;;;;;;;;;4959712;28;20543;-80
2022/04/15 10:48:04;;;;;;;7.63;4.53;;;;;;;;;;4952111;28;20039;-80
2022/04/15 10:50:31;;;;;;;11.00;4.28;;;;;;;;;;4961062;28;20034;-80
2022/04/15 10:53:36;;;;;;;7.57;4.22;;;;;;;;;;4965502;28;20033;-80
2022/04/15 10:56:09;;;;;;;8.10;4.18;;;;;;;;;;4920326;29;20098;-80
2022/04/15 11:01:32;;;;;;;6.28;3.90;;;;;;;;;;4966105;28;20057;-80
2022/04/15 11:04:05;;;;;;;8.45;4.35;;;;;;;;;;4977500;28;20718;-80
2022/04/15 11:06:31;;;;;;;22.55;7.20;;;;;;;;;;4970291;28;20038;-80
2022/04/15 11:08:58;;;;;;;10.40;4.80;;;;;;;;;;4976195;28;20061;-79
2022/04/15 11:11:35;;;;;;;7.22;4.43;;;;;;;;;;4962965;28;20085;-79
2022/04/15 11:14:03;;;;;;;7.18;4.60;;;;;;;;;;4957674;28;20045;-80
2022/04/15 11:16:43;;;;;;;9.43;4.32;;;;;;;;;;4972755;28;20026;-80
2022/04/15 11:19:11;;;;;;;7.25;3.90;;;;;;;;;;4974857;28;20049;-80
2022/04/15 11:21:39;;;;;;;14.20;5.57;;;;;;;;;;4977331;28;20053;-80
2022/04/15 11:24:05;;;;;;;10.05;4.38;;;;;;;;;;4975842;28;20034;-79
2022/04/15 11:26:31;;;;;;;5.63;3.95;;;;;;;;;;4977815;28;20041;-79
2022/04/15 11:28:58;;;;;;;7.80;4.40;;;;;;;;;;4971603;28;20621;-80
2022/04/15 11:31:28;;;;;;;9.23;4.35;;;;;;;;;;4981459;28;20037;-80
2022/04/15 11:33:55;;;;;;;12.88;4.28;;;;;;;;;;4965249;28;20671;-80
2022/04/15 11:36:22;;;;;;;8.57;4.22;;;;;;;;;;4963330;28;20085;-79
2022/04/15 11:38:49;;;;;;;8.23;4.68;;;;;;;;;;4976915;28;20498;-80
2022/04/15 11:41:16;;;;;;;13.15;4.45;;;;;;;;;;4967179;28;20034;-79
2022/04/15 11:43:47;;;;;;;8.90;4.22;;;;;;;;;;4974437;28;20034;-79
2022/04/15 11:46:13;;;;;;;8.13;4.43;;;;;;;;;;4979227;28;20129;-79
2022/04/15 11:48:39;;;;;;;8.75;4.95;;;;;;;;;;4978974;28;20038;-79
2022/04/15 11:51:05;;;;;;;13.75;5.15;;;;;;;;;;4982979;28;20042;-80
2022/04/15 11:53:31;;;;;;;7.50;4.70;;;;;;;;;;4978266;28;20031;-79
2022/04/15 11:55:58;;;;;;;7.82;4.45;;;;;;;;;;4966327;28;20141;-79
2022/04/15 11:58:25;;;;;;;7.50;4.35;;;;;;;;;;4985328;28;20073;-80
2022/04/15 12:00:55;;;;;;;7.38;4.50;;;;;;;;;;4979711;28;20026;-79
2022/04/15 12:03:24;;;;;;;10.63;4.28;;;;;;;;;;4970642;28;20683;-80
2022/04/15 12:06:01;;;;;;;11.80;4.60;;;;;;;;;;4970251;28;20069;-79
2022/04/15 12:08:27;;;;;;;10.05;4.28;;;;;;;;;;4976486;28;20081;-79
2022/04/15 12:10:54;;;;;;;7.97;4.53;;;;;;;;;;4973232;28;20113;-80
2022/04/15 12:13:20;;;;;;;7.40;4.32;;;;;;;;;;4964966;28;20042;-80
2022/04/15 12:15:46;;;;;;;11.10;4.85;;;;;;;;;;4966541;28;20569;-80
2022/04/15 12:18:12;;;;;;;8.60;4.78;;;;;;;;;;4981371;28;20368;-80
2022/04/15 12:20:39;;;;;;;8.43;4.00;;;;;;;;;;4961534;28;20427;-80
2022/04/15 12:23:06;;;;;;;9.63;4.95;;;;;;;;;;4964939;28;20042;-80
2022/04/15 12:31:01;;;;;;;10.98;5.10;;;;;;;;;;4980343;28;20041;-80
2022/04/15 12:33:27;;;;;;;11.27;5.07;;;;;;;;;;4980716;28;20470;-80
2022/04/15 12:36:01;;;;;;;10.45;4.35;;;;;;;;;;4978432;28;20033;-80
2022/04/15 12:38:27;;;;;;;10.00;4.97;;;;;;;;;;4978742;28;20054;-80
2022/04/15 12:40:59;;;;;;;7.90;4.78;;;;;;;;;;4963355;28;20042;-80
2022/04/15 12:43:25;;;;;;;6.13;4.28;;;;;;;;;;4977385;28;20018;-80
2022/04/15 12:45:56;;;;;;;8.93;4.38;;;;;;;;;;4977894;28;20058;-81
2022/04/15 12:48:23;;;;;;;10.30;4.95;;;;;;;;;;4956163;28;20026;-80
2022/04/15 12:50:54;;;;;;;7.93;4.65;;;;;;;;;;4959622;28;20038;-80
2022/04/15 12:53:24;;;;;;;6.60;4.13;;;;;;;;;;4973249;28;20436;-80
2022/04/15 12:55:51;;;;;;;9.57;4.40;;;;;;;;;;4963944;28;20130;-80
2022/04/15 12:58:20;;;;;;;10.88;4.28;;;;;;;;;;4966065;28;20610;-80
2022/04/15 13:00:48;;;;;;;10.07;4.50;;;;;;;;;;4969062;28;20038;-80
2022/04/15 13:03:17;;;;;;;8.02;4.45;;;;;;;;;;4971852;28;20025;-80
2022/04/15 13:05:43;;;;;;;8.68;4.38;;;;;;;;;;4962939;28;20042;-80
2022/04/15 13:08:09;;;;;;;8.38;4.80;;;;;;;;;;4981292;28;20042;-80
2022/04/15 13:10:35;;;;;;;5.97;4.57;;;;;;;;;;4964732;28;20034;-80
2022/04/15 13:13:01;;;;;;;9.55;4.80;;;;;;;;;;4979730;28;20057;-80
2022/04/15 13:15:27;;;;;;;8.95;4.97;;;;;;;;;;4964329;28;20076;-80
2022/04/15 13:17:53;;;;;;;7.97;4.43;;;;;;;;;;4971362;28;20411;-80
2022/04/15 13:20:19;;;;;;;7.38;4.47;;;;;;;;;;4981071;28;20034;-81
2022/04/15 13:22:45;;;;;;;9.27;4.90;;;;;;;;;;4984214;28;20045;-80
2022/04/15 13:25:11;;;;;;;10.25;4.63;;;;;;;;;;4982181;28;20034;-80
2022/04/15 13:27:37;;;;;;;10.38;5.40;;;;;;;;;;4963574;28;20495;-80
2022/04/15 13:30:04;;;;;;;12.55;5.50;;;;;;;;;;4967217;28;20049;-80
2022/04/15 13:32:30;;;;;;;10.25;5.20;;;;;;;;;;4979737;28;20041;-80
2022/04/15 13:34:56;;;;;;;11.55;5.30;;;;;;;;;;4974893;28;20332;-80
2022/04/15 13:37:22;;;;;;;15.38;5.82;;;;;;;;;;4978798;28;20069;-80
2022/04/15 13:39:48;;;;;;;10.85;6.43;;;;;;;;;;4977166;28;20505;-80
2022/04/15 13:42:14;;;;;;;12.52;5.32;;;;;;;;;;4982618;28;20600;-80
2022/04/15 13:44:40;;;;;;;9.55;4.60;;;;;;;;;;4962751;28;20030;-80
2022/04/15 13:47:07;;;;;;;9.90;4.88;;;;;;;;;;4962573;28;20541;-79
2022/04/15 13:49:33;;;;;;;12.50;4.90;;;;;;;;;;4984263;28;20030;-80
2022/04/15 13:52:00;;;;;;;10.50;4.85;;;;;;;;;;4984363;28;20030;-80
2022/04/15 13:57:10;;;;;;;12.10;5.30;;;;;;;;;;4984553;28;20512;-81
2022/04/15 13:59:37;;;;;;;9.90;5.90;;;;;;;;;;4981060;28;20534;-80
2022/04/15 14:02:06;;;;;;;12.52;5.45;;;;;;;;;;4981261;28;20390;-80
2022/04/15 14:04:32;;;;;;;9.82;5.25;;;;;;;;;;4980493;28;20394;-80
2022/04/15 14:06:58;;;;;;;14.85;6.05;;;;;;;;;;4967016;28;20141;-80
2022/04/15 14:09:24;;;;;;;13.88;5.38;;;;;;;;;;4961966;28;20130;-80
2022/04/15 14:11:51;;;;;;;10.40;5.07;;;;;;;;;;4958554;28;20048;-80
2022/04/15 14:14:23;;;;;;;14.20;4.80;;;;;;;;;;4968010;28;20081;-80
2022/04/15 14:16:49;;;;;;;14.77;5.50;;;;;;;;;;4980019;28;20367;-80
2022/04/15 14:19:15;;;;;;;15.98;5.40;;;;;;;;;;4967702;28;20049;-80
2022/04/15 14:21:41;;;;;;;12.35;6.38;;;;;;;;;;4963812;28;20081;-80
2022/04/15 14:24:08;;;;;;;14.68;6.22;;;;;;;;;;4963873;28;20544;-80
2022/04/15 14:26:35;;;;;;;14.35;5.97;;;;;;;;;;4962397;28;20030;-80
2022/04/15 14:29:01;;;;;;;11.90;5.35;;;;;;;;;;4981815;28;20665;-80
2022/04/15 14:31:27;;;;;;;25.60;8.65;;;;;;;;;;4975780;28;20483;-81
2022/04/15 14:33:53;;;;;;;18.17;5.78;;;;;;;;;;4982085;28;20052;-80
2022/04/15 14:36:20;;;;;;;10.60;5.40;;;;;;;;;;4975488;28;20034;-80
2022/04/15 14:38:46;;;;;;;11.27;5.10;;;;;;;;;;4966518;28;20104;-80
2022/04/15 14:41:12;;;;;;;11.40;4.78;;;;;;;;;;4960729;28;20038;-80
2022/04/15 14:43:39;;;;;;;10.57;4.95;;;;;;;;;;4985077;28;21164;-80
2022/04/15 14:46:06;;;;;;;8.98;5.20;;;;;;;;;;4963109;28;20074;-80
2022/04/15 14:48:32;;;;;;;11.70;6.00;;;;;;;;;;4965518;28;20090;-80